sensor_id;sensor_type;location;lat;lon;timestamp;temperature;humidity
12119;DHT22;6123;48.864;9.200;2022-11-15T00:01:15;10.60;99.90
12119;DHT22;6123;48.864;9.200;2022-11-15T00:03:44;10.50;99.90
12119;DHT22;6123;48.864;9.200;2022-11-15T00:06:10;10.60;99.90
12119;DHT22;6123;48.864;9.200;2022-11-15T00:08:37;10.60;99.90
12119;DHT22;6123;48.864;9.200;2022-11-15T00:11:03;10.60;99.90
12119;DHT22;6123;48.864;9.200;2022-11-15T00:13:32;10.60;99.90
12119;DHT22;6123;48.864;9.200;2022-11-15T00:15:59;10.50;99.90
12119;DHT22;6123;48.864;9.200;2022-11-15T00:18:25;10.50;99.90
12119;DHT22;6123;48.864;9.200;2022-11-15T00:20:53;10.60;99.90
12119;DHT22;6123;48.864;9.200;2022-11-15T00:23:19;10.50;99.90
12119;DHT22;6123;48.864;9.200;2022-11-15T00:25:47;10.50;99.90
12119;DHT22;6123;48.864;9.200;2022-11-15T00:28:22;10.50;99.90
12119;DHT22;6123;48.864;9.200;2022-11-15T00:30:48;10.60;99.90
12119;DHT22;6123;48.864;9.200;2022-11-15T00:33:13;10.60;99.90
12119;DHT22;6123;48.864;9.200;2022-11-15T00:35:41;10.70;99.90
12119;DHT22;6123;48.864;9.200;2022-11-15T00:38:07;10.60;99.90
12119;DHT22;6123;48.864;9.200;2022-11-15T00:40:32;10.60;99.90
12119;DHT22;6123;48.864;9.200;2022-11-15T00:42:58;10.60;99.90
12119;DHT22;6123;48.864;9.200;2022-11-15T00:45:24;10.60;99.90
12119;DHT22;6123;48.864;9.200;2022-11-15T00:47:50;10.50;99.90
12119;DHT22;6123;48.864;9.200;2022-11-15T00:50:19;10.60;99.90
12119;DHT22;6123;48.864;9.200;2022-11-15T00:52:44;10.60;99.90
12119;DHT22;6123;48.864;9.200;2022-11-15T00:55:17;10.60;99.90
12119;DHT22;6123;48.864;9.200;2022-11-15T00:57:45;10.50;99.90
12119;DHT22;6123;48.864;9.200;2022-11-15T01:00:12;10.60;99.90
12119;DHT22;6123;48.864;9.200;2022-11-15T01:02:40;10.60;99.90
12119;DHT22;6123;48.864;9.200;2022-11-15T01:05:06;10.50;99.90
12119;DHT22;6123;48.864;9.200;2022-11-15T01:07:32;10.30;99.90
12119;DHT22;6123;48.864;9.200;2022-11-15T01:09:57;10.30;99.90
12119;DHT22;6123;48.864;9.200;2022-11-15T01:12:23;10.40;99.90
12119;DHT22;6123;48.864;9.200;2022-11-15T01:14:49;10.30;99.90
12119;DHT22;6123;48.864;9.200;2022-11-15T01:17:15;10.40;99.90
12119;DHT22;6123;48.864;9.200;2022-11-15T01:19:40;10.40;99.90
12119;DHT22;6123;48.864;9.200;2022-11-15T01:22:06;10.40;99.90
12119;DHT22;6123;48.864;9.200;2022-11-15T01:24:31;10.30;99.90
12119;DHT22;6123;48.864;9.200;2022-11-15T01:26:59;10.30;99.90
12119;DHT22;6123;48.864;9.200;2022-11-15T01:29:25;10.20;99.90
12119;DHT22;6123;48.864;9.200;2022-11-15T01:31:52;10.20;99.90
12119;DHT22;6123;48.864;9.200;2022-11-15T01:34:18;10.20;99.90
12119;DHT22;6123;48.864;9.200;2022-11-15T01:36:47;10.10;99.90
12119;DHT22;6123;48.864;9.200;2022-11-15T01:39:12;10.20;99.90
12119;DHT22;6123;48.864;9.200;2022-11-15T01:41:38;10.20;99.90
12119;DHT22;6123;48.864;9.200;2022-11-15T01:47:08;10.20;99.90
12119;DHT22;6123;48.864;9.200;2022-11-15T01:49:39;10.20;99.90
12119;DHT22;6123;48.864;9.200;2022-11-15T01:52:10;10.30;99.90
12119;DHT22;6123;48.864;9.200;2022-11-15T01:54:37;10.20;99.90
12119;DHT22;6123;48.864;9.200;2022-11-15T01:57:06;10.20;99.90
12119;DHT22;6123;48.864;9.200;2022-11-15T01:59:34;10.20;99.90
12119;DHT22;6123;48.864;9.200;2022-11-15T02:02:00;10.20;99.90
12119;DHT22;6123;48.864;9.200;2022-11-15T02:04:28;10.10;99.90
12119;DHT22;6123;48.864;9.200;2022-11-15T02:06:56;10.20;99.90
12119;DHT22;6123;48.864;9.200;2022-11-15T02:09:22;10.10;99.90
12119;DHT22;6123;48.864;9.200;2022-11-15T02:11:48;10.20;99.90
12119;DHT22;6123;48.864;9.200;2022-11-15T02:14:20;10.30;99.90
12119;DHT22;6123;48.864;9.200;2022-11-15T02:26:19;10.40;99.90
12119;DHT22;6123;48.864;9.200;2022-11-15T02:34:35;10.70;99.90
12119;DHT22;6123;48.864;9.200;2022-11-15T02:42:28;10.60;99.90
12119;DHT22;6123;48.864;9.200;2022-11-15T02:45:35;10.60;99.90
12119;DHT22;6123;48.864;9.200;2022-11-15T02:48:04;10.60;99.90
12119;DHT22;6123;48.864;9.200;2022-11-15T02:50:32;10.50;99.90
12119;DHT22;6123;48.864;9.200;2022-11-15T02:53:00;10.40;99.90
12119;DHT22;6123;48.864;9.200;2022-11-15T02:55:30;10.20;99.90
12119;DHT22;6123;48.864;9.200;2022-11-15T02:58:11;10.20;99.90
12119;DHT22;6123;48.864;9.200;2022-11-15T03:00:50;10.00;99.90
12119;DHT22;6123;48.864;9.200;2022-11-15T03:03:34;10.10;99.90
12119;DHT22;6123;48.864;9.200;2022-11-15T03:11:11;9.60;99.90
12119;DHT22;6123;48.864;9.200;2022-11-15T03:14:20;9.60;99.90
12119;DHT22;6123;48.864;9.200;2022-11-15T03:17:22;9.50;99.90
12119;DHT22;6123;48.864;9.200;2022-11-15T03:19:54;9.40;99.90
12119;DHT22;6123;48.864;9.200;2022-11-15T03:22:23;9.20;99.90
12119;DHT22;6123;48.864;9.200;2022-11-15T03:24:56;9.20;99.90
12119;DHT22;6123;48.864;9.200;2022-11-15T03:27:25;9.20;99.90
12119;DHT22;6123;48.864;9.200;2022-11-15T03:29:59;9.10;99.90
12119;DHT22;6123;48.864;9.200;2022-11-15T03:32:28;9.10;99.90
12119;DHT22;6123;48.864;9.200;2022-11-15T03:37:23;9.00;99.90
12119;DHT22;6123;48.864;9.200;2022-11-15T03:39:50;9.00;99.90
12119;DHT22;6123;48.864;9.200;2022-11-15T03:42:28;9.00;99.90
12119;DHT22;6123;48.864;9.200;2022-11-15T03:48:02;8.90;99.90
12119;DHT22;6123;48.864;9.200;2022-11-15T03:50:30;8.90;99.90
12119;DHT22;6123;48.864;9.200;2022-11-15T03:52:57;8.90;99.90
12119;DHT22;6123;48.864;9.200;2022-11-15T03:55:23;8.80;99.90
12119;DHT22;6123;48.864;9.200;2022-11-15T03:57:51;8.90;99.90
12119;DHT22;6123;48.864;9.200;2022-11-15T04:00:18;8.90;99.90
12119;DHT22;6123;48.864;9.200;2022-11-15T04:02:43;8.90;99.90
12119;DHT22;6123;48.864;9.200;2022-11-15T04:05:09;8.90;99.90
12119;DHT22;6123;48.864;9.200;2022-11-15T04:07:35;8.90;99.90
12119;DHT22;6123;48.864;9.200;2022-11-15T04:10:00;9.10;99.90
12119;DHT22;6123;48.864;9.200;2022-11-15T04:12:36;9.10;99.90
12119;DHT22;6123;48.864;9.200;2022-11-15T04:15:08;9.10;99.90
12119;DHT22;6123;48.864;9.200;2022-11-15T04:20:13;8.90;99.90
12119;DHT22;6123;48.864;9.200;2022-11-15T04:22:59;8.90;99.90
12119;DHT22;6123;48.864;9.200;2022-11-15T04:25:55;8.90;99.90
12119;DHT22;6123;48.864;9.200;2022-11-15T04:28:22;8.90;99.90
12119;DHT22;6123;48.864;9.200;2022-11-15T04:30:50;8.90;99.90
12119;DHT22;6123;48.864;9.200;2022-11-15T04:33:18;8.90;99.90
12119;DHT22;6123;48.864;9.200;2022-11-15T04:35:46;8.90;99.90
12119;DHT22;6123;48.864;9.200;2022-11-15T04:38:31;8.80;99.90
12119;DHT22;6123;48.864;9.200;2022-11-15T04:40:59;8.80;99.90
12119;DHT22;6123;48.864;9.200;2022-11-15T04:43:25;8.90;99.90
12119;DHT22;6123;48.864;9.200;2022-11-15T04:45:51;8.90;99.90
12119;DHT22;6123;48.864;9.200;2022-11-15T04:48:16;8.90;99.90
12119;DHT22;6123;48.864;9.200;2022-11-15T04:50:42;8.90;99.90
12119;DHT22;6123;48.864;9.200;2022-11-15T04:53:10;8.90;99.90
12119;DHT22;6123;48.864;9.200;2022-11-15T04:55:36;8.90;99.90
12119;DHT22;6123;48.864;9.200;2022-11-15T04:58:02;8.90;99.90
12119;DHT22;6123;48.864;9.200;2022-11-15T05:00:29;8.80;99.90
12119;DHT22;6123;48.864;9.200;2022-11-15T05:02:55;8.80;99.90
12119;DHT22;6123;48.864;9.200;2022-11-15T05:05:40;8.80;99.90
12119;DHT22;6123;48.864;9.200;2022-11-15T05:08:08;8.70;99.90
12119;DHT22;6123;48.864;9.200;2022-11-15T05:10:33;8.80;99.90
12119;DHT22;6123;48.864;9.200;2022-11-15T05:13:04;8.70;99.90
12119;DHT22;6123;48.864;9.200;2022-11-15T05:15:29;8.60;99.90
12119;DHT22;6123;48.864;9.200;2022-11-15T05:17:59;8.60;99.90
12119;DHT22;6123;48.864;9.200;2022-11-15T05:20:28;8.60;99.90
12119;DHT22;6123;48.864;9.200;2022-11-15T05:22:54;8.60;99.90
12119;DHT22;6123;48.864;9.200;2022-11-15T05:25:21;8.60;99.90
12119;DHT22;6123;48.864;9.200;2022-11-15T05:27:47;8.70;99.90
12119;DHT22;6123;48.864;9.200;2022-11-15T05:30:13;8.70;99.90
12119;DHT22;6123;48.864;9.200;2022-11-15T05:32:39;8.70;99.90
12119;DHT22;6123;48.864;9.200;2022-11-15T05:35:05;8.70;99.90
12119;DHT22;6123;48.864;9.200;2022-11-15T05:37:35;8.60;99.90
12119;DHT22;6123;48.864;9.200;2022-11-15T05:40:00;8.60;99.90
12119;DHT22;6123;48.864;9.200;2022-11-15T05:42:27;8.60;99.90
12119;DHT22;6123;48.864;9.200;2022-11-15T05:44:53;8.50;99.90
12119;DHT22;6123;48.864;9.200;2022-11-15T05:47:25;8.50;99.90
12119;DHT22;6123;48.864;9.200;2022-11-15T05:49:53;8.50;99.90
12119;DHT22;6123;48.864;9.200;2022-11-15T05:52:22;8.40;99.90
12119;DHT22;6123;48.864;9.200;2022-11-15T05:54:49;8.50;99.90
12119;DHT22;6123;48.864;9.200;2022-11-15T05:57:15;8.50;99.90
12119;DHT22;6123;48.864;9.200;2022-11-15T05:59:41;8.60;99.90
12119;DHT22;6123;48.864;9.200;2022-11-15T06:02:09;8.60;99.90
12119;DHT22;6123;48.864;9.200;2022-11-15T06:04:37;8.50;99.90
12119;DHT22;6123;48.864;9.200;2022-11-15T06:07:05;8.50;99.90
12119;DHT22;6123;48.864;9.200;2022-11-15T06:09:30;8.50;99.90
12119;DHT22;6123;48.864;9.200;2022-11-15T06:11:58;8.40;99.90
12119;DHT22;6123;48.864;9.200;2022-11-15T06:14:26;8.50;99.90
12119;DHT22;6123;48.864;9.200;2022-11-15T06:16:52;8.40;99.90
12119;DHT22;6123;48.864;9.200;2022-11-15T06:19:19;8.50;99.90
12119;DHT22;6123;48.864;9.200;2022-11-15T06:21:45;8.60;99.90
12119;DHT22;6123;48.864;9.200;2022-11-15T06:24:11;8.60;99.90
12119;DHT22;6123;48.864;9.200;2022-11-15T06:26:38;8.60;99.90
12119;DHT22;6123;48.864;9.200;2022-11-15T06:29:04;8.70;99.90
12119;DHT22;6123;48.864;9.200;2022-11-15T06:31:32;8.70;99.90
12119;DHT22;6123;48.864;9.200;2022-11-15T06:33:58;8.70;99.90
12119;DHT22;6123;48.864;9.200;2022-11-15T06:36:26;8.70;99.90
12119;DHT22;6123;48.864;9.200;2022-11-15T06:38:52;8.70;99.90
12119;DHT22;6123;48.864;9.200;2022-11-15T06:41:22;8.80;99.90
12119;DHT22;6123;48.864;9.200;2022-11-15T06:43:48;8.70;99.90
12119;DHT22;6123;48.864;9.200;2022-11-15T06:46:16;8.80;99.90
12119;DHT22;6123;48.864;9.200;2022-11-15T06:48:41;8.80;99.90
12119;DHT22;6123;48.864;9.200;2022-11-15T06:51:07;8.80;99.90
12119;DHT22;6123;48.864;9.200;2022-11-15T06:53:33;8.90;99.90
12119;DHT22;6123;48.864;9.200;2022-11-15T06:56:06;8.90;99.90
12119;DHT22;6123;48.864;9.200;2022-11-15T06:58:32;8.90;99.90
12119;DHT22;6123;48.864;9.200;2022-11-15T07:01:02;8.90;99.90
12119;DHT22;6123;48.864;9.200;2022-11-15T07:03:29;8.90;99.90
12119;DHT22;6123;48.864;9.200;2022-11-15T07:05:56;8.90;99.90
12119;DHT22;6123;48.864;9.200;2022-11-15T07:08:23;8.90;99.90
12119;DHT22;6123;48.864;9.200;2022-11-15T07:10:49;8.80;99.90
12119;DHT22;6123;48.864;9.200;2022-11-15T07:13:14;8.80;99.90
12119;DHT22;6123;48.864;9.200;2022-11-15T07:15:40;8.90;99.90
12119;DHT22;6123;48.864;9.200;2022-11-15T07:18:06;9.00;99.90
12119;DHT22;6123;48.864;9.200;2022-11-15T07:20:34;8.90;99.90
12119;DHT22;6123;48.864;9.200;2022-11-15T07:23:04;9.00;99.90
12119;DHT22;6123;48.864;9.200;2022-11-15T07:25:30;9.00;99.90
12119;DHT22;6123;48.864;9.200;2022-11-15T07:27:57;9.10;99.90
12119;DHT22;6123;48.864;9.200;2022-11-15T07:30:22;9.10;99.90
12119;DHT22;6123;48.864;9.200;2022-11-15T07:32:55;9.10;99.90
12119;DHT22;6123;48.864;9.200;2022-11-15T07:35:21;9.00;99.90
12119;DHT22;6123;48.864;9.200;2022-11-15T07:37:54;9.10;99.90
12119;DHT22;6123;48.864;9.200;2022-11-15T07:40:22;8.50;99.90
12119;DHT22;6123;48.864;9.200;2022-11-15T07:42:47;9.20;99.90
12119;DHT22;6123;48.864;9.200;2022-11-15T07:45:23;9.30;99.90
12119;DHT22;6123;48.864;9.200;2022-11-15T07:47:52;9.40;99.90
12119;DHT22;6123;48.864;9.200;2022-11-15T07:50:18;9.40;99.90
12119;DHT22;6123;48.864;9.200;2022-11-15T07:52:46;9.50;99.90
12119;DHT22;6123;48.864;9.200;2022-11-15T07:55:17;9.60;99.90
12119;DHT22;6123;48.864;9.200;2022-11-15T07:57:42;9.70;99.90
12119;DHT22;6123;48.864;9.200;2022-11-15T08:00:08;9.90;99.90
12119;DHT22;6123;48.864;9.200;2022-11-15T08:02:34;9.80;99.90
12119;DHT22;6123;48.864;9.200;2022-11-15T08:05:00;9.90;99.90
12119;DHT22;6123;48.864;9.200;2022-11-15T08:07:30;9.90;99.90
12119;DHT22;6123;48.864;9.200;2022-11-15T08:09:57;9.90;99.90
12119;DHT22;6123;48.864;9.200;2022-11-15T08:12:29;10.10;99.90
12119;DHT22;6123;48.864;9.200;2022-11-15T08:14:55;10.30;99.90
12119;DHT22;6123;48.864;9.200;2022-11-15T08:17:25;10.50;99.90
12119;DHT22;6123;48.864;9.200;2022-11-15T08:19:51;10.50;99.90
12119;DHT22;6123;48.864;9.200;2022-11-15T08:22:17;10.60;99.90
12119;DHT22;6123;48.864;9.200;2022-11-15T08:24:44;10.70;99.90
12119;DHT22;6123;48.864;9.200;2022-11-15T08:27:09;10.60;99.90
12119;DHT22;6123;48.864;9.200;2022-11-15T08:29:43;10.60;99.90
12119;DHT22;6123;48.864;9.200;2022-11-15T08:32:10;10.60;99.90
12119;DHT22;6123;48.864;9.200;2022-11-15T08:34:37;10.60;99.90
12119;DHT22;6123;48.864;9.200;2022-11-15T08:37:04;10.70;99.90
12119;DHT22;6123;48.864;9.200;2022-11-15T08:39:32;10.90;99.90
12119;DHT22;6123;48.864;9.200;2022-11-15T08:42:00;11.10;99.90
12119;DHT22;6123;48.864;9.200;2022-11-15T08:44:26;11.10;99.90
12119;DHT22;6123;48.864;9.200;2022-11-15T08:46:56;11.20;99.90
12119;DHT22;6123;48.864;9.200;2022-11-15T08:49:22;11.30;99.90
12119;DHT22;6123;48.864;9.200;2022-11-15T08:51:48;11.30;99.90
12119;DHT22;6123;48.864;9.200;2022-11-15T08:54:13;11.50;99.90
12119;DHT22;6123;48.864;9.200;2022-11-15T08:56:39;11.60;99.90
12119;DHT22;6123;48.864;9.200;2022-11-15T08:59:07;11.50;99.90
12119;DHT22;6123;48.864;9.200;2022-11-15T09:01:32;11.60;99.90
12119;DHT22;6123;48.864;9.200;2022-11-15T09:03:58;11.80;99.90
12119;DHT22;6123;48.864;9.200;2022-11-15T09:06:24;11.80;99.90
12119;DHT22;6123;48.864;9.200;2022-11-15T09:08:51;11.90;99.90
12119;DHT22;6123;48.864;9.200;2022-11-15T09:11:17;12.00;99.90
12119;DHT22;6123;48.864;9.200;2022-11-15T09:13:45;12.00;99.90
12119;DHT22;6123;48.864;9.200;2022-11-15T09:16:11;12.00;99.90
12119;DHT22;6123;48.864;9.200;2022-11-15T09:18:41;12.10;99.90
12119;DHT22;6123;48.864;9.200;2022-11-15T09:21:08;12.10;99.90
12119;DHT22;6123;48.864;9.200;2022-11-15T09:23:33;12.20;99.90
12119;DHT22;6123;48.864;9.200;2022-11-15T09:26:00;12.40;99.90
12119;DHT22;6123;48.864;9.200;2022-11-15T09:28:32;12.50;99.90
12119;DHT22;6123;48.864;9.200;2022-11-15T09:31:01;12.40;99.90
12119;DHT22;6123;48.864;9.200;2022-11-15T09:33:27;12.40;99.90
12119;DHT22;6123;48.864;9.200;2022-11-15T09:35:53;12.40;99.90
12119;DHT22;6123;48.864;9.200;2022-11-15T09:38:20;12.50;99.90
12119;DHT22;6123;48.864;9.200;2022-11-15T09:40:53;12.60;99.90
12119;DHT22;6123;48.864;9.200;2022-11-15T09:43:58;12.60;99.90
12119;DHT22;6123;48.864;9.200;2022-11-15T09:46:51;12.80;99.90
12119;DHT22;6123;48.864;9.200;2022-11-15T09:49:21;13.00;99.90
12119;DHT22;6123;48.864;9.200;2022-11-15T09:51:50;13.00;99.90
12119;DHT22;6123;48.864;9.200;2022-11-15T09:57:16;13.40;99.90
12119;DHT22;6123;48.864;9.200;2022-11-15T10:02:42;13.70;99.90
12119;DHT22;6123;48.864;9.200;2022-11-15T10:05:12;13.70;99.90
12119;DHT22;6123;48.864;9.200;2022-11-15T10:08:02;13.70;99.90
12119;DHT22;6123;48.864;9.200;2022-11-15T10:10:47;13.60;99.90
12119;DHT22;6123;48.864;9.200;2022-11-15T10:13:22;13.60;99.90
12119;DHT22;6123;48.864;9.200;2022-11-15T10:15:50;13.60;99.90
12119;DHT22;6123;48.864;9.200;2022-11-15T10:21:13;13.80;99.90
12119;DHT22;6123;48.864;9.200;2022-11-15T10:23:40;13.80;99.90
12119;DHT22;6123;48.864;9.200;2022-11-15T10:26:10;13.80;99.90
12119;DHT22;6123;48.864;9.200;2022-11-15T10:28:36;13.80;99.90
12119;DHT22;6123;48.864;9.200;2022-11-15T10:31:02;13.80;99.90
12119;DHT22;6123;48.864;9.200;2022-11-15T10:33:36;13.90;99.90
12119;DHT22;6123;48.864;9.200;2022-11-15T10:36:22;13.80;99.90
12119;DHT22;6123;48.864;9.200;2022-11-15T10:41:38;13.70;99.90
12119;DHT22;6123;48.864;9.200;2022-11-15T10:46:33;13.80;99.90
12119;DHT22;6123;48.864;9.200;2022-11-15T10:51:47;13.70;99.90
12119;DHT22;6123;48.864;9.200;2022-11-15T10:54:23;13.70;99.90
12119;DHT22;6123;48.864;9.200;2022-11-15T10:56:54;13.70;99.90
12119;DHT22;6123;48.864;9.200;2022-11-15T10:59:28;13.60;99.90
12119;DHT22;6123;48.864;9.200;2022-11-15T11:01:57;13.60;99.90
12119;DHT22;6123;48.864;9.200;2022-11-15T11:04:25;13.70;99.90
12119;DHT22;6123;48.864;9.200;2022-11-15T11:06:58;13.80;99.90
12119;DHT22;6123;48.864;9.200;2022-11-15T11:09:38;13.90;99.90
12119;DHT22;6123;48.864;9.200;2022-11-15T11:12:09;13.70;99.90
12119;DHT22;6123;48.864;9.200;2022-11-15T11:14:36;13.80;99.90
12119;DHT22;6123;48.864;9.200;2022-11-15T11:25:19;13.70;99.90
12119;DHT22;6123;48.864;9.200;2022-11-15T11:30:41;13.70;99.90
12119;DHT22;6123;48.864;9.200;2022-11-15T11:33:16;13.70;99.90
12119;DHT22;6123;48.864;9.200;2022-11-15T11:38:50;13.80;99.90
12119;DHT22;6123;48.864;9.200;2022-11-15T11:49:10;13.90;99.90
12119;DHT22;6123;48.864;9.200;2022-11-15T11:51:47;14.00;99.90
12119;DHT22;6123;48.864;9.200;2022-11-15T12:00:19;14.10;99.90
12119;DHT22;6123;48.864;9.200;2022-11-15T12:05:44;14.10;99.90
12119;DHT22;6123;48.864;9.200;2022-11-15T12:10:55;14.40;99.90
12119;DHT22;6123;48.864;9.200;2022-11-15T12:13:26;14.40;99.90
12119;DHT22;6123;48.864;9.200;2022-11-15T12:18:30;14.60;99.90
12119;DHT22;6123;48.864;9.200;2022-11-15T12:21:13;14.70;99.90
12119;DHT22;6123;48.864;9.200;2022-11-15T12:23:46;14.70;99.90
12119;DHT22;6123;48.864;9.200;2022-11-15T12:26:23;14.90;99.90
12119;DHT22;6123;48.864;9.200;2022-11-15T12:28:59;14.90;99.90
12119;DHT22;6123;48.864;9.200;2022-11-15T12:31:38;14.80;99.90
12119;DHT22;6123;48.864;9.200;2022-11-15T12:36:46;14.80;99.90
12119;DHT22;6123;48.864;9.200;2022-11-15T12:39:13;14.80;99.90
12119;DHT22;6123;48.864;9.200;2022-11-15T12:41:44;14.80;99.90
12119;DHT22;6123;48.864;9.200;2022-11-15T12:44:12;14.70;99.90
12119;DHT22;6123;48.864;9.200;2022-11-15T13:02:22;14.50;99.90
12119;DHT22;6123;48.864;9.200;2022-11-15T13:04:53;14.50;99.90
12119;DHT22;6123;48.864;9.200;2022-11-15T13:17:51;14.50;99.90
12119;DHT22;6123;48.864;9.200;2022-11-15T13:20:20;14.40;99.90
12119;DHT22;6123;48.864;9.200;2022-11-15T13:31:00;14.50;99.90
12119;DHT22;6123;48.864;9.200;2022-11-15T13:33:32;14.40;99.90
12119;DHT22;6123;48.864;9.200;2022-11-15T13:36:01;14.30;99.90
12119;DHT22;6123;48.864;9.200;2022-11-15T13:38:32;14.40;99.90
12119;DHT22;6123;48.864;9.200;2022-11-15T13:40:59;14.40;99.90
12119;DHT22;6123;48.864;9.200;2022-11-15T13:46:09;14.20;99.90
12119;DHT22;6123;48.864;9.200;2022-11-15T13:48:39;14.20;99.90
12119;DHT22;6123;48.864;9.200;2022-11-15T13:51:17;14.20;99.90
12119;DHT22;6123;48.864;9.200;2022-11-15T13:53:55;14.10;99.90
12119;DHT22;6123;48.864;9.200;2022-11-15T13:56:24;14.10;99.90
12119;DHT22;6123;48.864;9.200;2022-11-15T13:58:51;14.00;99.90
12119;DHT22;6123;48.864;9.200;2022-11-15T14:01:21;14.00;99.90
12119;DHT22;6123;48.864;9.200;2022-11-15T14:03:54;14.00;99.90
12119;DHT22;6123;48.864;9.200;2022-11-15T14:06:22;14.00;99.90
12119;DHT22;6123;48.864;9.200;2022-11-15T14:09:02;13.90;99.90
12119;DHT22;6123;48.864;9.200;2022-11-15T14:11:28;13.90;99.90
12119;DHT22;6123;48.864;9.200;2022-11-15T14:16:48;13.90;99.90
12119;DHT22;6123;48.864;9.200;2022-11-15T14:22:14;13.70;99.90
12119;DHT22;6123;48.864;9.200;2022-11-15T14:24:43;13.70;99.90
12119;DHT22;6123;48.864;9.200;2022-11-15T14:27:27;13.70;99.90
12119;DHT22;6123;48.864;9.200;2022-11-15T14:29:54;13.70;99.90
12119;DHT22;6123;48.864;9.200;2022-11-15T14:32:22;13.60;99.90
12119;DHT22;6123;48.864;9.200;2022-11-15T14:34:53;13.60;99.90
12119;DHT22;6123;48.864;9.200;2022-11-15T14:39:54;13.50;99.90
12119;DHT22;6123;48.864;9.200;2022-11-15T14:42:21;13.50;99.90
12119;DHT22;6123;48.864;9.200;2022-11-15T14:44:48;13.40;99.90
12119;DHT22;6123;48.864;9.200;2022-11-15T14:47:16;13.40;99.90
12119;DHT22;6123;48.864;9.200;2022-11-15T14:49:42;13.40;99.90
12119;DHT22;6123;48.864;9.200;2022-11-15T14:52:24;13.60;99.90
12119;DHT22;6123;48.864;9.200;2022-11-15T14:54:50;13.50;99.90
12119;DHT22;6123;48.864;9.200;2022-11-15T14:57:18;13.50;99.90
12119;DHT22;6123;48.864;9.200;2022-11-15T14:59:46;13.50;99.90
12119;DHT22;6123;48.864;9.200;2022-11-15T15:02:18;13.60;99.90
12119;DHT22;6123;48.864;9.200;2022-11-15T15:04:45;13.60;99.90
12119;DHT22;6123;48.864;9.200;2022-11-15T15:07:11;13.60;99.90
12119;DHT22;6123;48.864;9.200;2022-11-15T15:09:37;13.50;99.90
12119;DHT22;6123;48.864;9.200;2022-11-15T15:12:03;13.40;99.90
12119;DHT22;6123;48.864;9.200;2022-11-15T15:14:29;13.60;99.90
12119;DHT22;6123;48.864;9.200;2022-11-15T15:16:54;13.90;99.90
12119;DHT22;6123;48.864;9.200;2022-11-15T15:19:20;13.90;99.90
12119;DHT22;6123;48.864;9.200;2022-11-15T15:21:47;14.10;99.90
12119;DHT22;6123;48.864;9.200;2022-11-15T15:24:16;14.00;99.90
12119;DHT22;6123;48.864;9.200;2022-11-15T15:26:41;14.00;99.90
12119;DHT22;6123;48.864;9.200;2022-11-15T15:29:09;14.00;99.90
12119;DHT22;6123;48.864;9.200;2022-11-15T15:31:34;14.00;99.90
12119;DHT22;6123;48.864;9.200;2022-11-15T15:34:00;13.90;99.90
12119;DHT22;6123;48.864;9.200;2022-11-15T15:36:26;14.10;99.90
12119;DHT22;6123;48.864;9.200;2022-11-15T15:38:54;13.90;99.90
12119;DHT22;6123;48.864;9.200;2022-11-15T15:41:23;13.70;99.90
12119;DHT22;6123;48.864;9.200;2022-11-15T15:43:49;14.10;99.90
12119;DHT22;6123;48.864;9.200;2022-11-15T15:46:16;14.20;99.90
12119;DHT22;6123;48.864;9.200;2022-11-15T15:48:43;14.30;99.90
12119;DHT22;6123;48.864;9.200;2022-11-15T15:51:09;13.40;99.90
12119;DHT22;6123;48.864;9.200;2022-11-15T15:53:35;13.30;99.90
12119;DHT22;6123;48.864;9.200;2022-11-15T15:56:03;12.90;99.90
12119;DHT22;6123;48.864;9.200;2022-11-15T15:58:33;13.00;99.90
12119;DHT22;6123;48.864;9.200;2022-11-15T16:00:59;13.00;99.90
12119;DHT22;6123;48.864;9.200;2022-11-15T16:03:24;12.80;99.90
12119;DHT22;6123;48.864;9.200;2022-11-15T16:05:50;12.70;99.90
12119;DHT22;6123;48.864;9.200;2022-11-15T16:08:24;12.80;99.90
12119;DHT22;6123;48.864;9.200;2022-11-15T16:10:50;12.70;99.90
12119;DHT22;6123;48.864;9.200;2022-11-15T16:13:16;12.70;99.90
12119;DHT22;6123;48.864;9.200;2022-11-15T16:15:43;12.70;99.90
12119;DHT22;6123;48.864;9.200;2022-11-15T16:18:15;12.70;99.90
12119;DHT22;6123;48.864;9.200;2022-11-15T16:20:46;12.70;99.90
12119;DHT22;6123;48.864;9.200;2022-11-15T16:23:16;12.70;99.90
12119;DHT22;6123;48.864;9.200;2022-11-15T16:25:53;12.70;99.90
12119;DHT22;6123;48.864;9.200;2022-11-15T16:28:23;12.70;99.90
12119;DHT22;6123;48.864;9.200;2022-11-15T16:31:03;12.70;99.90
12119;DHT22;6123;48.864;9.200;2022-11-15T16:33:31;12.70;99.90
12119;DHT22;6123;48.864;9.200;2022-11-15T16:35:57;12.60;99.90
12119;DHT22;6123;48.864;9.200;2022-11-15T16:38:23;12.60;99.90
12119;DHT22;6123;48.864;9.200;2022-11-15T16:40:48;12.60;99.90
12119;DHT22;6123;48.864;9.200;2022-11-15T16:43:14;12.60;99.90
12119;DHT22;6123;48.864;9.200;2022-11-15T16:45:40;12.50;99.90
12119;DHT22;6123;48.864;9.200;2022-11-15T16:48:23;12.60;99.90
12119;DHT22;6123;48.864;9.200;2022-11-15T16:50:50;12.50;99.90
12119;DHT22;6123;48.864;9.200;2022-11-15T16:53:16;12.60;99.90
12119;DHT22;6123;48.864;9.200;2022-11-15T16:55:41;12.60;99.90
12119;DHT22;6123;48.864;9.200;2022-11-15T16:58:08;12.50;99.90
12119;DHT22;6123;48.864;9.200;2022-11-15T17:00:34;12.70;99.90
12119;DHT22;6123;48.864;9.200;2022-11-15T17:02:59;12.70;99.90
12119;DHT22;6123;48.864;9.200;2022-11-15T17:05:27;12.80;99.90
12119;DHT22;6123;48.864;9.200;2022-11-15T17:07:54;12.80;99.90
12119;DHT22;6123;48.864;9.200;2022-11-15T17:10:22;12.80;99.90
12119;DHT22;6123;48.864;9.200;2022-11-15T17:12:48;12.80;99.90
12119;DHT22;6123;48.864;9.200;2022-11-15T17:15:16;12.80;99.90
12119;DHT22;6123;48.864;9.200;2022-11-15T17:17:51;12.70;99.90
12119;DHT22;6123;48.864;9.200;2022-11-15T17:20:21;12.60;99.90
12119;DHT22;6123;48.864;9.200;2022-11-15T17:22:47;12.70;99.90
12119;DHT22;6123;48.864;9.200;2022-11-15T17:25:13;12.60;99.90
12119;DHT22;6123;48.864;9.200;2022-11-15T17:27:39;12.70;99.90
12119;DHT22;6123;48.864;9.200;2022-11-15T17:30:06;12.60;99.90
12119;DHT22;6123;48.864;9.200;2022-11-15T17:32:34;12.70;99.90
12119;DHT22;6123;48.864;9.200;2022-11-15T17:34:59;12.60;99.90
12119;DHT22;6123;48.864;9.200;2022-11-15T17:37:25;12.60;99.90
12119;DHT22;6123;48.864;9.200;2022-11-15T17:39:53;12.60;99.90
12119;DHT22;6123;48.864;9.200;2022-11-15T17:42:18;12.60;99.90
12119;DHT22;6123;48.864;9.200;2022-11-15T17:44:44;12.60;99.90
12119;DHT22;6123;48.864;9.200;2022-11-15T17:47:09;12.70;99.90
12119;DHT22;6123;48.864;9.200;2022-11-15T17:49:35;12.70;99.90
12119;DHT22;6123;48.864;9.200;2022-11-15T17:52:06;12.70;99.90
12119;DHT22;6123;48.864;9.200;2022-11-15T17:54:32;12.60;99.90
12119;DHT22;6123;48.864;9.200;2022-11-15T17:56:58;12.60;99.90
12119;DHT22;6123;48.864;9.200;2022-11-15T17:59:23;12.70;99.90
12119;DHT22;6123;48.864;9.200;2022-11-15T18:01:49;12.70;99.90
12119;DHT22;6123;48.864;9.200;2022-11-15T18:04:15;12.60;99.90
12119;DHT22;6123;48.864;9.200;2022-11-15T18:06:43;12.50;99.90
12119;DHT22;6123;48.864;9.200;2022-11-15T18:09:08;12.50;99.90
12119;DHT22;6123;48.864;9.200;2022-11-15T18:11:36;12.50;99.90
12119;DHT22;6123;48.864;9.200;2022-11-15T18:14:06;12.50;99.90
12119;DHT22;6123;48.864;9.200;2022-11-15T18:16:36;12.40;99.90
12119;DHT22;6123;48.864;9.200;2022-11-15T18:19:02;12.50;99.90